createdAt,value
2019-02-08T00:00:38.241Z,43.48
2019-02-08T00:03:10.201Z,44.05
2019-02-08T00:05:41.564Z,44.40
2019-02-08T00:08:12.738Z,44.11
2019-02-08T00:10:43.311Z,44.38
2019-02-08T00:13:14.366Z,43.77
2019-02-08T00:15:46.430Z,44.10
2019-02-08T00:18:17.470Z,43.22
2019-02-08T00:20:48.869Z,43.19
2019-02-08T00:23:26.980Z,43.20
2019-02-08T00:25:54.883Z,43.45
2019-02-08T00:28:27.158Z,43.51
2019-02-08T00:30:58.613Z,43.28
2019-02-08T00:33:30.419Z,42.86
2019-02-08T00:36:02.879Z,42.94
2019-02-08T00:38:33.936Z,43.05
2019-02-08T00:41:04.128Z,43.15
2019-02-08T00:43:34.818Z,42.76
2019-02-08T00:46:05.960Z,42.60
2019-02-08T00:48:37.237Z,42.41
2019-02-08T00:51:07.585Z,42.40
2019-02-08T00:53:39.291Z,42.12
2019-02-08T00:56:10.011Z,42.09
2019-02-08T00:58:41.002Z,42.01
2019-02-08T01:01:13.676Z,42.12
2019-02-08T01:03:45.959Z,42.23
2019-02-08T01:06:17.447Z,42.19
2019-02-08T01:08:48.521Z,42.30
2019-02-08T01:11:19.117Z,42.52
2019-02-08T01:13:49.712Z,42.70
2019-02-08T01:16:20.476Z,43.01
2019-02-08T01:18:52.696Z,42.82
2019-02-08T01:21:23.488Z,42.98
2019-02-08T01:23:56.484Z,43.10
2019-02-08T01:26:27.949Z,43.45
2019-02-08T01:28:58.996Z,43.56
2019-02-08T01:31:30.066Z,42.93
2019-02-08T01:34:01.110Z,43.16
2019-02-08T01:36:32.108Z,42.98
2019-02-08T01:39:07.470Z,43.89
2019-02-08T01:41:38.496Z,43.35
2019-02-08T01:44:09.633Z,43.24
2019-02-08T01:46:40.199Z,43.99
2019-02-08T01:49:10.724Z,42.98
2019-02-08T01:51:40.938Z,43.79
2019-02-08T01:54:12.486Z,43.84
2019-02-08T01:56:43.930Z,44.76
2019-02-08T01:59:14.631Z,44.04
2019-02-08T02:01:46.948Z,44.29
2019-02-08T02:04:17.615Z,43.92
2019-02-08T02:06:48.319Z,44.29
2019-02-08T02:09:21.789Z,44.20
2019-02-08T02:11:52.442Z,44.06
2019-02-08T02:14:23.411Z,43.79
2019-02-08T02:16:54.712Z,44.21
2019-02-08T02:19:25.760Z,44.74
2019-02-08T02:21:55.910Z,45.69
2019-02-08T02:24:27.722Z,46.20
2019-02-08T02:26:58.708Z,45.15
2019-02-08T02:29:29.473Z,45.52
2019-02-08T02:32:00.792Z,45.26
2019-02-08T02:34:31.926Z,45.18
2019-02-08T02:37:03.656Z,44.84
2019-02-08T02:39:35.979Z,45.16
2019-02-08T02:42:07.042Z,44.76
2019-02-08T02:44:37.311Z,45.04
2019-02-08T02:47:08.298Z,44.75
2019-02-08T02:49:38.591Z,45.06
2019-02-08T02:52:08.774Z,44.76
2019-02-08T02:54:39.792Z,45.13
2019-02-08T02:57:10.726Z,46.10
2019-02-08T02:59:41.434Z,44.73
2019-02-08T03:02:11.671Z,44.67
2019-02-08T03:04:44.131Z,45.00
2019-02-08T03:07:14.805Z,44.95
2019-02-08T03:09:48.967Z,44.87
2019-02-08T03:12:20.626Z,45.33
2019-02-08T03:14:51.236Z,45.24
2019-02-08T03:17:22.337Z,44.89
2019-02-08T03:19:53.398Z,44.91
2019-02-08T03:22:24.361Z,44.86
2019-02-08T03:24:57.012Z,45.46
2019-02-08T03:27:28.367Z,45.78
2019-02-08T03:29:59.292Z,46.07
2019-02-08T03:32:30.838Z,46.79
2019-02-08T03:35:02.489Z,46.05
2019-02-08T03:37:34.581Z,46.96
2019-02-08T03:40:09.651Z,46.14
2019-02-08T03:42:41.157Z,45.87
2019-02-08T03:45:13.107Z,46.86
2019-02-08T03:47:44.359Z,46.61
2019-02-08T03:50:17.342Z,46.45
2019-02-08T03:52:47.490Z,46.01
2019-02-08T03:55:20.140Z,46.20
2019-02-08T03:57:51.083Z,47.03
2019-02-08T04:00:28.467Z,47.28
2019-02-08T04:02:58.749Z,47.22
2019-02-08T04:05:29.230Z,46.04
2019-02-08T04:07:59.886Z,45.68
2019-02-08T04:10:32.173Z,45.54
2019-02-08T04:13:02.647Z,45.12
2019-02-08T04:15:35.982Z,45.45
2019-02-08T04:18:08.426Z,45.96
2019-02-08T04:20:39.131Z,46.01
2019-02-08T04:23:09.304Z,45.71
2019-02-08T04:25:41.702Z,46.00
2019-02-08T04:28:13.160Z,45.87
2019-02-08T04:30:44.470Z,46.59
2019-02-08T04:33:15.888Z,47.09
2019-02-08T04:35:47.157Z,47.64
2019-02-08T04:38:18.505Z,47.78
2019-02-08T04:40:51.161Z,48.16
2019-02-08T04:43:22.026Z,48.28
2019-02-08T04:45:53.494Z,47.38
2019-02-08T04:48:24.157Z,46.99
2019-02-08T04:50:54.896Z,47.96
2019-02-08T04:53:25.040Z,47.30
2019-02-08T04:55:55.234Z,47.63
2019-02-08T04:58:35.139Z,48.46
2019-02-08T05:00:59.477Z,47.85
2019-02-08T05:03:30.195Z,48.13
2019-02-08T05:06:00.399Z,47.83
2019-02-08T05:08:30.562Z,48.37
2019-02-08T05:11:01.477Z,48.97
2019-02-08T05:13:33.425Z,49.23
2019-02-08T05:16:04.718Z,49.22
2019-02-08T05:18:43.073Z,49.67
2019-02-08T05:21:13.832Z,48.74
2019-02-08T05:23:46.132Z,47.94
2019-02-08T05:26:18.601Z,49.71
2019-02-08T05:28:49.546Z,48.10
2019-02-08T05:31:20.699Z,47.55
2019-02-08T05:33:53.329Z,47.87
2019-02-08T05:36:24.349Z,47.50
2019-02-08T05:38:56.464Z,47.27
2019-02-08T05:41:27.019Z,47.08
2019-02-08T05:43:58.637Z,48.27
2019-02-08T05:46:31.065Z,48.15
2019-02-08T05:49:01.425Z,48.90
2019-02-08T05:51:33.933Z,48.41
2019-02-08T05:54:04.932Z,48.15
2019-02-08T05:56:36.047Z,48.58
2019-02-08T05:59:07.191Z,48.15
2019-02-08T06:01:39.975Z,47.83
2019-02-08T06:04:10.681Z,48.01
2019-02-08T06:06:43.861Z,48.02
2019-02-08T06:09:14.491Z,47.96
2019-02-08T06:11:45.517Z,48.61
2019-02-08T06:14:16.688Z,48.58
2019-02-08T06:16:48.465Z,47.44
2019-02-08T06:19:19.076Z,47.45
2019-02-08T06:21:49.748Z,46.95
2019-02-08T06:24:23.173Z,47.31
2019-02-08T06:26:55.376Z,47.99
2019-02-08T06:29:25.893Z,48.37
2019-02-08T06:31:58.136Z,47.39
2019-02-08T06:34:29.719Z,47.38
2019-02-08T06:37:00.712Z,47.72
2019-02-08T06:39:32.058Z,47.00
2019-02-08T06:42:04.177Z,46.28
2019-02-08T06:44:37.932Z,46.69
2019-02-08T06:47:10.485Z,46.28
2019-02-08T06:49:41.523Z,46.88
2019-02-08T06:52:13.361Z,46.92
2019-02-08T06:54:44.461Z,46.07
2019-02-08T06:57:25.093Z,47.30
2019-02-08T07:00:03.259Z,46.67
2019-02-08T07:02:52.822Z,47.02
2019-02-08T07:05:57.804Z,46.02
2019-02-08T07:08:41.793Z,45.75
2019-02-08T07:11:31.238Z,45.25
2019-02-08T07:14:18.304Z,45.70
2019-02-08T07:17:08.109Z,45.54
2019-02-08T07:20:01.015Z,45.72
2019-02-08T07:22:45.546Z,46.07
2019-02-08T07:25:27.749Z,46.01
2019-02-08T07:28:25.002Z,46.79
2019-02-08T07:31:14.938Z,46.78
2019-02-08T07:34:23.186Z,45.39
2019-02-08T07:37:05.083Z,45.20
2019-02-08T07:40:03.366Z,46.25
2019-02-08T07:42:56.566Z,45.88
2019-02-08T07:45:51.977Z,46.07
2019-02-08T07:48:46.508Z,46.59
2019-02-08T07:51:39.962Z,45.96
2019-02-08T07:54:48.363Z,46.83
2019-02-08T07:57:45.344Z,46.32
2019-02-08T08:00:36.286Z,46.77
2019-02-08T08:03:28.789Z,47.36
2019-02-08T08:06:23.431Z,47.02
2019-02-08T08:09:11.165Z,46.85
2019-02-08T08:11:54.258Z,46.85
2019-02-08T08:15:00.549Z,47.91
2019-02-08T08:17:50.422Z,47.93
2019-02-08T08:20:41.383Z,47.12
2019-02-08T08:23:36.268Z,48.13
2019-02-08T08:26:26.754Z,48.66
2019-02-08T08:29:26.457Z,47.85
2019-02-08T08:32:16.399Z,47.28
2019-02-08T08:35:27.682Z,48.14
2019-02-08T08:38:57.604Z,47.87
2019-02-08T08:42:19.741Z,47.80
2019-02-08T08:45:27.338Z,47.30
2019-02-08T08:48:35.188Z,47.21
2019-02-08T08:51:45.582Z,47.24
2019-02-08T08:55:19.668Z,48.58
2019-02-08T08:58:28.332Z,47.08
2019-02-08T09:01:38.691Z,47.89
2019-02-08T09:04:56.777Z,47.16
2019-02-08T09:08:22.519Z,46.68
2019-02-08T09:11:36.546Z,47.84
2019-02-08T09:15:04.148Z,46.85
2019-02-08T09:18:07.623Z,46.36
2019-02-08T09:21:27.639Z,48.43
2019-02-08T09:24:50.027Z,47.40
2019-02-08T09:27:57.740Z,47.48
2019-02-08T09:31:11.234Z,48.37
2019-02-08T09:34:40.402Z,47.76
2019-02-08T09:37:53.693Z,47.85
2019-02-08T09:41:00.280Z,47.81
2019-02-08T09:44:30.514Z,47.72
2019-02-08T09:48:01.482Z,48.23
2019-02-08T09:51:19.070Z,47.46
2019-02-08T09:54:39.424Z,47.81
2019-02-08T09:58:04.958Z,48.11
2019-02-08T10:01:41.080Z,47.89
2019-02-08T10:04:58.044Z,47.78
2019-02-08T10:08:05.554Z,47.04
2019-02-08T10:11:24.914Z,46.84
2019-02-08T10:15:01.726Z,46.91
2019-02-08T10:18:16.081Z,46.88
2019-02-08T10:21:34.448Z,47.73
2019-02-08T10:24:46.981Z,47.35
2019-02-08T10:27:45.543Z,47.16
2019-02-08T10:31:08.801Z,47.30
2019-02-08T10:34:16.819Z,47.26
2019-02-08T10:37:42.111Z,47.58
2019-02-08T10:40:59.146Z,47.77
2019-02-08T10:44:09.419Z,46.59
2019-02-08T10:47:28.383Z,46.36
2019-02-08T10:50:54.497Z,46.33
2019-02-08T10:54:02.282Z,46.67
2019-02-08T10:57:17.642Z,46.41
2019-02-08T11:00:40.742Z,46.32
2019-02-08T11:04:04.852Z,48.45
2019-02-08T11:07:14.687Z,47.79
2019-02-08T11:10:26.010Z,47.66
2019-02-08T11:13:51.125Z,48.50
2019-02-08T11:17:07.715Z,48.37
2019-02-08T11:19:40.072Z,48.07
2019-02-08T11:22:11.440Z,48.42
2019-02-08T11:24:42.461Z,47.72
2019-02-08T11:27:13.668Z,46.00
2019-02-08T11:29:46.063Z,46.40
2019-02-08T11:32:19.139Z,45.70
2019-02-08T11:34:51.847Z,45.58
2019-02-08T11:37:22.409Z,45.58
2019-02-08T11:39:52.690Z,45.32
2019-02-08T11:42:23.386Z,45.57
2019-02-08T11:44:53.608Z,46.71
2019-02-08T11:47:25.141Z,46.10
2019-02-08T11:49:58.425Z,46.10
2019-02-08T11:52:29.999Z,47.38
2019-02-08T11:55:01.382Z,48.54
2019-02-08T11:57:34.290Z,48.53
2019-02-08T12:00:07.817Z,47.24
2019-02-08T12:02:40.688Z,47.79
2019-02-08T12:05:13.278Z,48.52
2019-02-08T12:07:44.418Z,47.97
2019-02-08T12:10:14.791Z,48.44
2019-02-08T12:12:45.816Z,49.62
2019-02-08T12:15:17.503Z,50.93
2019-02-08T12:17:48.802Z,50.32
2019-02-08T12:20:19.575Z,50.95
2019-02-08T12:22:50.716Z,50.15
2019-02-08T12:25:21.005Z,49.72
2019-02-08T12:27:51.347Z,48.34
2019-02-08T12:30:25.561Z,48.79
2019-02-08T12:32:58.268Z,49.32
2019-02-08T12:35:30.323Z,49.45
2019-02-08T12:38:02.420Z,50.52
2019-02-08T12:40:34.512Z,50.97
2019-02-08T12:43:07.354Z,50.44
2019-02-08T12:45:38.872Z,50.11
2019-02-08T12:48:10.299Z,50.19
2019-02-08T12:50:41.429Z,50.41
2019-02-08T12:53:14.078Z,51.16
2019-02-08T12:55:46.721Z,51.39
2019-02-08T12:58:20.188Z,50.45
2019-02-08T13:00:51.985Z,50.41
2019-02-08T13:03:23.337Z,50.09
2019-02-08T13:05:55.281Z,49.87
2019-02-08T13:08:27.774Z,49.75
2019-02-08T13:10:58.835Z,50.71
2019-02-08T13:13:31.071Z,49.36
2019-02-08T13:16:03.089Z,49.73
2019-02-08T13:18:34.614Z,49.74
2019-02-08T13:21:05.592Z,49.37
2019-02-08T13:23:37.367Z,49.99
2019-02-08T13:26:08.290Z,49.26
2019-02-08T13:28:40.171Z,50.08
2019-02-08T13:31:10.506Z,50.03
2019-02-08T13:33:45.004Z,50.30
2019-02-08T13:36:16.583Z,50.47
2019-02-08T13:38:49.405Z,50.08
2019-02-08T13:41:20.038Z,49.94
2019-02-08T13:43:51.982Z,50.44
2019-02-08T13:46:22.461Z,49.99
2019-02-08T13:48:53.250Z,50.62
2019-02-08T13:51:23.859Z,49.35
2019-02-08T13:53:57.810Z,48.80
2019-02-08T13:56:28.347Z,48.11
2019-02-08T13:58:59.824Z,48.25
2019-02-08T14:01:31.143Z,49.99
2019-02-08T14:04:02.663Z,49.24
2019-02-08T14:06:33.885Z,49.19
2019-02-08T14:09:09.375Z,48.70
2019-02-08T14:11:40.377Z,49.69
2019-02-08T14:14:11.934Z,49.14
2019-02-08T14:16:43.307Z,48.47
2019-02-08T14:19:14.862Z,48.19
2019-02-08T14:21:45.985Z,48.12
2019-02-08T14:24:18.511Z,48.38
2019-02-08T14:26:50.974Z,49.32
2019-02-08T14:29:22.750Z,48.38
2019-02-08T14:31:53.109Z,48.98
2019-02-08T14:34:25.865Z,48.83
2019-02-08T14:36:57.150Z,49.21
2019-02-08T14:39:29.658Z,50.07
2019-02-08T14:42:01.484Z,50.07
2019-02-08T14:44:33.113Z,50.45
2019-02-08T14:47:04.040Z,50.02
2019-02-08T14:49:34.760Z,49.98
2019-02-08T14:52:05.412Z,51.28
2019-02-08T14:54:38.192Z,50.46
2019-02-08T14:57:16.490Z,49.46
2019-02-08T14:59:44.259Z,50.13
2019-02-08T15:02:15.671Z,50.47
2019-02-08T15:04:47.193Z,50.17
2019-02-08T15:07:18.266Z,50.67
2019-02-08T15:09:50.212Z,50.02
2019-02-08T15:12:20.451Z,50.76
2019-02-08T15:14:54.037Z,51.48
2019-02-08T15:17:24.693Z,50.85
2019-02-08T15:19:57.944Z,50.80
2019-02-08T15:22:29.615Z,50.81
2019-02-08T15:25:03.490Z,51.22
2019-02-08T15:27:34.828Z,51.13
2019-02-08T15:30:08.303Z,51.32
2019-02-08T15:32:39.685Z,51.16
2019-02-08T15:35:13.722Z,52.20
2019-02-08T15:37:46.074Z,52.21
2019-02-08T15:40:27.850Z,52.59
2019-02-08T15:43:03.138Z,52.21
2019-02-08T15:45:34.143Z,51.92
2019-02-08T15:48:05.762Z,51.10
2019-02-08T15:50:36.334Z,51.05
2019-02-08T15:53:07.374Z,50.50
2019-02-08T15:55:40.122Z,51.10
2019-02-08T15:58:10.792Z,49.31
2019-02-08T16:00:41.671Z,49.21
2019-02-08T16:03:13.343Z,49.49
2019-02-08T16:05:43.667Z,48.90
2019-02-08T16:08:14.697Z,49.02
2019-02-08T16:10:46.928Z,48.59
2019-02-08T16:13:17.611Z,49.20
2019-02-08T16:15:47.904Z,49.12
2019-02-08T16:18:19.749Z,48.93
2019-02-08T16:20:50.207Z,49.03
2019-02-08T16:23:21.789Z,49.53
2019-02-08T16:25:53.392Z,49.27
2019-02-08T16:28:24.013Z,50.44
2019-02-08T16:30:56.906Z,49.83
2019-02-08T16:33:27.079Z,49.22
2019-02-08T16:36:00.084Z,48.40
2019-02-08T16:38:30.356Z,47.86
2019-02-08T16:41:02.696Z,49.45
2019-02-08T16:43:33.443Z,48.98
2019-02-08T16:46:05.496Z,48.96
2019-02-08T16:48:36.114Z,48.77
2019-02-08T16:51:06.757Z,48.59
2019-02-08T16:53:36.956Z,48.71
2019-02-08T16:56:08.524Z,48.71
2019-02-08T16:58:39.521Z,49.29
2019-02-08T17:01:10.152Z,48.92
2019-02-08T17:03:42.173Z,47.95
2019-02-08T17:06:13.617Z,48.37
2019-02-08T17:08:44.337Z,47.55
2019-02-08T17:11:15.632Z,48.08
2019-02-08T17:13:45.896Z,48.54
2019-02-08T17:16:17.360Z,49.04
2019-02-08T17:18:49.914Z,48.86
2019-02-08T17:21:20.776Z,48.80
2019-02-08T17:23:50.991Z,49.70
2019-02-08T17:26:23.770Z,49.56
2019-02-08T17:28:54.413Z,49.36
2019-02-08T17:31:24.681Z,50.60
2019-02-08T17:33:54.851Z,51.31
2019-02-08T17:36:28.471Z,50.38
2019-02-08T17:39:00.230Z,50.00
2019-02-08T17:41:32.720Z,49.54
2019-02-08T17:44:05.170Z,48.66
2019-02-08T17:46:37.509Z,48.94
2019-02-08T17:49:08.396Z,48.35
2019-02-08T17:51:39.730Z,49.37
2019-02-08T17:54:11.561Z,48.61
2019-02-08T17:56:44.112Z,49.09
2019-02-08T17:59:16.200Z,48.71
2019-02-08T18:01:48.829Z,48.40
2019-02-08T18:04:20.330Z,48.05
2019-02-08T18:06:53.063Z,47.94
2019-02-08T18:09:25.949Z,49.23
2019-02-08T18:11:58.945Z,48.41
2019-02-08T18:14:30.975Z,47.86
2019-02-08T18:17:02.616Z,48.41
2019-02-08T18:19:33.457Z,49.09
2019-02-08T18:22:04.433Z,48.22
2019-02-08T18:24:36.031Z,48.57
2019-02-08T18:27:09.219Z,49.38
2019-02-08T18:29:43.314Z,48.44
2019-02-08T18:32:14.879Z,48.58
2019-02-08T18:34:46.534Z,49.66
2019-02-08T18:37:19.294Z,48.25
2019-02-08T18:39:50.770Z,47.92
2019-02-08T18:42:29.602Z,48.87
2019-02-08T18:44:59.806Z,47.91
2019-02-08T18:47:31.681Z,48.29
2019-02-08T18:50:01.860Z,48.63
2019-02-08T18:52:34.060Z,49.14
2019-02-08T18:55:05.734Z,49.42
2019-02-08T18:57:37.889Z,48.72
2019-02-08T19:00:13.621Z,48.43
2019-02-08T19:02:45.807Z,48.49
2019-02-08T19:05:19.306Z,48.08
2019-02-08T19:07:51.836Z,48.16
2019-02-08T19:10:23.387Z,47.39
2019-02-08T19:12:55.606Z,47.10
2019-02-08T19:15:26.344Z,47.39
2019-02-08T19:17:58.476Z,46.85
2019-02-08T19:20:29.780Z,48.38
2019-02-08T19:23:00.840Z,48.14
2019-02-08T19:25:35.768Z,48.80
2019-02-08T19:28:09.295Z,48.74
2019-02-08T19:30:42.284Z,48.49
2019-02-08T19:33:13.673Z,48.49
2019-02-08T19:35:47.972Z,47.74
2019-02-08T19:38:21.526Z,48.16
2019-02-08T19:40:54.310Z,48.05
2019-02-08T19:43:26.035Z,48.97
2019-02-08T19:45:57.390Z,48.29
2019-02-08T19:48:29.353Z,49.26
2019-02-08T19:51:00.591Z,48.48
2019-02-08T19:53:32.051Z,47.18
2019-02-08T19:56:03.518Z,46.79
2019-02-08T19:58:35.299Z,47.50
2019-02-08T20:01:08.251Z,47.55
2019-02-08T20:03:38.558Z,47.87
2019-02-08T20:06:08.935Z,46.89
2019-02-08T20:08:39.739Z,47.08
2019-02-08T20:11:11.251Z,47.81
2019-02-08T20:13:44.283Z,46.62
2019-02-08T20:16:15.713Z,47.70
2019-02-08T20:18:46.978Z,47.29
2019-02-08T20:21:18.275Z,47.37
2019-02-08T20:23:51.433Z,46.65
2019-02-08T20:26:22.675Z,46.24
2019-02-08T20:28:55.623Z,46.88
2019-02-08T20:31:27.619Z,46.83
2019-02-08T20:33:59.602Z,46.91
2019-02-08T20:36:31.023Z,47.14
2019-02-08T20:39:04.131Z,47.11
2019-02-08T20:41:36.922Z,46.88
2019-02-08T20:44:09.558Z,46.60
2019-02-08T20:46:41.029Z,47.06
2019-02-08T20:49:14.266Z,46.67
2019-02-08T20:51:44.795Z,46.79
2019-02-08T20:54:16.202Z,46.94
2019-02-08T20:56:46.911Z,46.77
2019-02-08T20:59:21.322Z,46.91
2019-02-08T21:01:53.451Z,46.77
2019-02-08T21:04:24.217Z,46.01
2019-02-08T21:06:54.702Z,46.51
2019-02-08T21:09:27.008Z,46.59
2019-02-08T21:11:58.345Z,46.59
2019-02-08T21:14:32.086Z,47.38
2019-02-08T21:17:03.164Z,47.82
2019-02-08T21:19:33.412Z,46.74
2019-02-08T21:22:06.131Z,46.77
2019-02-08T21:24:38.804Z,47.27
2019-02-08T21:27:11.283Z,48.42
2019-02-08T21:29:43.451Z,48.89
2019-02-08T21:32:14.084Z,47.70
2019-02-08T21:34:45.683Z,47.49
2019-02-08T21:37:16.851Z,48.76
2019-02-08T21:39:51.477Z,48.05
2019-02-08T21:42:21.943Z,47.58
2019-02-08T21:44:55.103Z,46.86
2019-02-08T21:47:25.965Z,47.47
2019-02-08T21:49:58.002Z,46.40
2019-02-08T21:52:30.855Z,46.93
2019-02-08T21:55:02.406Z,47.79
2019-02-08T21:57:33.675Z,47.51
2019-02-08T22:00:07.479Z,47.79
2019-02-08T22:02:38.812Z,47.70
2019-02-08T22:05:11.645Z,47.68
2019-02-08T22:07:42.468Z,47.17
2019-02-08T22:10:14.270Z,46.74
2019-02-08T22:12:45.811Z,47.21
2019-02-08T22:15:21.229Z,46.99
2019-02-08T22:17:53.258Z,47.64
2019-02-08T22:20:24.651Z,47.13
2019-02-08T22:22:56.243Z,46.67
2019-02-08T22:25:28.393Z,46.16
2019-02-08T22:27:59.212Z,45.27
2019-02-08T22:30:30.380Z,45.84
2019-02-08T22:33:01.211Z,45.79
2019-02-08T22:35:35.652Z,44.87
2019-02-08T22:38:08.758Z,45.46
2019-02-08T22:40:41.349Z,44.60
2019-02-08T22:43:12.859Z,45.28
2019-02-08T22:45:46.286Z,45.32
2019-02-08T22:48:16.550Z,44.68
2019-02-08T22:50:47.314Z,45.05
2019-02-08T22:53:17.891Z,45.20
2019-02-08T22:55:49.958Z,45.24
2019-02-08T22:58:20.507Z,45.00
2019-02-08T23:01:33.091Z,44.57
2019-02-08T23:04:05.351Z,44.54
2019-02-08T23:06:44.611Z,44.99
2019-02-08T23:09:24.342Z,45.56
2019-02-08T23:11:55.358Z,45.86
2019-02-08T23:14:28.499Z,46.05
2019-02-08T23:17:01.428Z,46.00
2019-02-08T23:19:33.899Z,46.72
2019-02-08T23:22:05.521Z,45.59
2019-02-08T23:24:37.724Z,46.00
2019-02-08T23:27:10.022Z,45.93
2019-02-08T23:29:41.409Z,45.67
2019-02-08T23:32:13.311Z,44.76
2019-02-08T23:34:44.386Z,45.16
2019-02-08T23:37:15.207Z,44.35
2019-02-08T23:39:46.175Z,44.78
2019-02-08T23:42:18.749Z,44.82
2019-02-08T23:44:50.178Z,45.24
2019-02-08T23:47:23.080Z,44.80
2019-02-08T23:49:54.544Z,46.09
2019-02-08T23:52:25.865Z,45.84
2019-02-08T23:54:56.888Z,46.09
2019-02-08T23:57:28.754Z,45.34
